createdAt,value
2023-02-01T00:00:28.740Z,100308.06
2023-02-01T00:02:55.216Z,100313.48
2023-02-01T00:05:21.763Z,100311.29
2023-02-01T00:07:48.971Z,100317.57
2023-02-01T00:10:15.564Z,100326.45
2023-02-01T00:12:42.114Z,100321.46
2023-02-01T00:15:09.631Z,100317.02
2023-02-01T00:17:36.110Z,100321.38
2023-02-01T00:20:03.503Z,100316.25
2023-02-01T00:22:30.039Z,100306.95
2023-02-01T00:24:56.508Z,100305.92
2023-02-01T00:27:23.063Z,100310.05
2023-02-01T00:29:49.608Z,100308.81
2023-02-01T00:32:16.059Z,100313.50
2023-02-01T00:34:42.702Z,100318.90
2023-02-01T00:37:09.245Z,100316.66
2023-02-01T00:39:35.780Z,100320.45
2023-02-01T00:42:02.708Z,100324.42
2023-02-01T00:44:29.650Z,100318.05
2023-02-01T00:46:56.166Z,100321.02
2023-02-01T00:49:22.645Z,100313.77
2023-02-01T00:51:49.090Z,100312.08
2023-02-01T00:54:15.545Z,100309.36
2023-02-01T00:56:42.020Z,100310.98
2023-02-01T00:59:12.295Z,100305.11
2023-02-01T01:01:38.845Z,100308.94
2023-02-01T01:04:05.550Z,100303.95
2023-02-01T01:06:34.169Z,100309.73
2023-02-01T01:09:03.972Z,100313.22
2023-02-01T01:11:33.174Z,100312.79
2023-02-01T01:14:00.730Z,100301.95
2023-02-01T01:16:29.470Z,100295.80
2023-02-01T01:18:56.953Z,100291.90
2023-02-01T01:21:23.621Z,100279.84
2023-02-01T01:23:50.169Z,100274.20
2023-02-01T01:26:20.902Z,100268.14
2023-02-01T01:28:48.015Z,100269.39
2023-02-01T01:31:17.066Z,100263.91
2023-02-01T01:33:43.672Z,100255.84
2023-02-01T01:36:11.394Z,100254.40
2023-02-01T01:38:38.761Z,100253.27
2023-02-01T01:41:05.846Z,100246.94
2023-02-01T01:43:55.639Z,100250.30
2023-02-01T01:46:25.875Z,100246.25
2023-02-01T01:49:04.681Z,100239.91
2023-02-01T01:51:32.914Z,100244.13
2023-02-01T01:54:16.545Z,100245.52
2023-02-01T01:56:43.076Z,100257.15
2023-02-01T01:59:10.561Z,100256.81
2023-02-01T02:01:37.146Z,100253.60
2023-02-01T02:04:04.575Z,100254.73
2023-02-01T02:06:52.459Z,100258.41
2023-02-01T02:09:19.080Z,100251.08
2023-02-01T02:11:45.552Z,100252.14
2023-02-01T02:14:16.423Z,100240.19
2023-02-01T02:17:03.137Z,100239.45
2023-02-01T02:19:47.560Z,100234.17
2023-02-01T02:22:35.989Z,100239.09
2023-02-01T02:25:02.424Z,100238.14
2023-02-01T02:28:09.264Z,100245.20
2023-02-01T02:30:54.320Z,100239.27
2023-02-01T02:34:14.400Z,100240.50
2023-02-01T02:36:55.782Z,100235.61
2023-02-01T02:39:34.467Z,100231.55
2023-02-01T02:42:17.176Z,100232.15
2023-02-01T02:44:54.677Z,100239.50
2023-02-01T02:47:31.313Z,100239.38
2023-02-01T02:50:09.654Z,100236.46
2023-02-01T02:52:44.815Z,100242.95
2023-02-01T02:55:11.968Z,100238.89
2023-02-01T02:57:42.017Z,100234.69
2023-02-01T03:00:16.340Z,100231.84
2023-02-01T03:02:43.458Z,100242.02
2023-02-01T03:05:09.919Z,100233.62
2023-02-01T03:07:45.553Z,100231.13
2023-02-01T03:10:36.615Z,100237.91
2023-02-01T03:13:11.904Z,100220.33
2023-02-01T03:16:01.590Z,100227.18
2023-02-01T03:18:35.271Z,100222.96
2023-02-01T03:21:06.108Z,100227.23
2023-02-01T03:23:36.381Z,100223.33
2023-02-01T03:26:04.921Z,100214.61
2023-02-01T03:28:35.046Z,100223.11
2023-02-01T03:31:02.625Z,100219.20
2023-02-01T03:33:31.107Z,100224.70
2023-02-01T03:36:12.660Z,100222.70
2023-02-01T03:38:49.512Z,100226.02
2023-02-01T03:41:56.580Z,100229.53
2023-02-01T03:44:32.252Z,100225.45
2023-02-01T03:47:19.508Z,100223.20
2023-02-01T03:49:53.709Z,100225.92
2023-02-01T03:52:30.385Z,100224.73
2023-02-01T03:54:58.287Z,100230.44
2023-02-01T03:57:30.892Z,100231.96
2023-02-01T04:00:07.528Z,100225.68
2023-02-01T04:02:34.398Z,100224.70
2023-02-01T04:05:01.116Z,100221.25
2023-02-01T04:07:27.611Z,100225.73
2023-02-01T04:09:54.097Z,100226.30
2023-02-01T04:12:20.559Z,100225.64
2023-02-01T04:14:47.082Z,100224.92
2023-02-01T04:17:13.603Z,100223.59
2023-02-01T04:19:40.061Z,100218.77
2023-02-01T04:22:06.557Z,100222.09
2023-02-01T04:24:33.113Z,100223.34
2023-02-01T04:26:59.580Z,100219.89
2023-02-01T04:29:26.102Z,100216.38
2023-02-01T04:31:52.701Z,100218.27
2023-02-01T04:34:19.406Z,100219.92
2023-02-01T04:36:47.345Z,100225.20
2023-02-01T04:39:13.997Z,100219.62
2023-02-01T04:41:40.575Z,100223.89
2023-02-01T04:44:07.239Z,100224.03
2023-02-01T04:46:33.821Z,100228.14
2023-02-01T04:49:00.335Z,100228.70
2023-02-01T04:51:26.821Z,100232.56
2023-02-01T04:53:53.366Z,100228.23
2023-02-01T04:56:19.892Z,100225.85
2023-02-01T04:58:46.362Z,100223.29
2023-02-01T05:01:12.881Z,100227.81
2023-02-01T05:03:39.572Z,100227.98
2023-02-01T05:06:06.271Z,100227.61
2023-02-01T05:08:33.701Z,100229.69
2023-02-01T05:11:00.363Z,100234.55
2023-02-01T05:13:26.916Z,100240.06
2023-02-01T05:15:53.444Z,100237.45
2023-02-01T05:18:20.102Z,100249.38
2023-02-01T05:20:46.751Z,100246.12
2023-02-01T05:23:13.282Z,100238.85
2023-02-01T05:25:39.758Z,100252.54
2023-02-01T05:28:06.239Z,100250.69
2023-02-01T05:30:33.494Z,100252.59
2023-02-01T05:32:59.971Z,100243.39
2023-02-01T05:35:26.489Z,100244.27
2023-02-01T05:37:52.943Z,100239.88
2023-02-01T05:40:19.604Z,100246.73
2023-02-01T05:42:46.127Z,100240.73
2023-02-01T05:45:12.824Z,100231.69
2023-02-01T05:47:39.323Z,100231.48
2023-02-01T05:50:07.141Z,100235.08
2023-02-01T05:52:33.642Z,100244.55
2023-02-01T05:55:00.131Z,100247.26
2023-02-01T05:57:26.649Z,100249.26
2023-02-01T05:59:53.135Z,100250.27
2023-02-01T06:02:19.695Z,100251.96
2023-02-01T06:04:46.332Z,100246.88
2023-02-01T06:07:12.821Z,100248.29
2023-02-01T06:09:39.313Z,100250.17
2023-02-01T06:12:06.335Z,100255.02
2023-02-01T06:14:32.840Z,100255.17
2023-02-01T06:16:59.483Z,100257.60
2023-02-01T06:19:26.043Z,100266.48
2023-02-01T06:21:52.650Z,100262.30
2023-02-01T06:24:19.250Z,100274.29
2023-02-01T06:26:45.763Z,100281.95
2023-02-01T06:29:12.506Z,100288.61
2023-02-01T06:31:39.281Z,100290.98
2023-02-01T06:34:05.907Z,100288.70
2023-02-01T06:36:33.325Z,100290.93
2023-02-01T06:38:59.781Z,100293.47
2023-02-01T06:41:29.251Z,100300.84
2023-02-01T06:43:55.975Z,100301.09
2023-02-01T06:46:22.521Z,100297.34
2023-02-01T06:48:49.074Z,100299.52
2023-02-01T06:51:25.137Z,100288.88
2023-02-01T06:53:51.877Z,100286.73
2023-02-01T06:56:19.012Z,100281.95
2023-02-01T06:58:45.919Z,100283.79
2023-02-01T07:01:13.334Z,100284.43
2023-02-01T07:03:40.651Z,100287.62
2023-02-01T07:06:07.981Z,100280.39
2023-02-01T07:08:37.034Z,100278.06
2023-02-01T07:11:05.503Z,100282.84
2023-02-01T07:13:32.250Z,100281.90
2023-02-01T07:16:03.497Z,100279.60
2023-02-01T07:18:30.812Z,100285.63
2023-02-01T07:20:57.892Z,100283.88
2023-02-01T07:23:25.003Z,100284.04
2023-02-01T07:25:56.560Z,100287.66
2023-02-01T07:28:23.575Z,100291.13
2023-02-01T07:30:50.098Z,100295.96
2023-02-01T07:33:16.842Z,100305.16
2023-02-01T07:35:43.305Z,100299.98
2023-02-01T07:38:09.777Z,100305.42
2023-02-01T07:40:36.357Z,100303.26
2023-02-01T07:43:02.814Z,100301.11
2023-02-01T07:45:29.346Z,100301.54
2023-02-01T07:47:55.931Z,100302.54
2023-02-01T07:50:22.855Z,100305.61
2023-02-01T07:52:49.645Z,100309.16
2023-02-01T07:55:16.234Z,100306.09
2023-02-01T07:57:42.752Z,100304.26
2023-02-01T08:00:10.407Z,100308.67
2023-02-01T08:02:37.069Z,100305.97
2023-02-01T08:05:03.567Z,100307.88
2023-02-01T08:07:30.071Z,100304.41
2023-02-01T08:09:56.556Z,100304.89
2023-02-01T08:12:24.515Z,100306.97
2023-02-01T08:14:52.130Z,100307.12
2023-02-01T08:17:18.632Z,100311.24
2023-02-01T08:19:45.089Z,100312.55
2023-02-01T08:22:12.146Z,100311.97
2023-02-01T08:24:38.679Z,100303.38
2023-02-01T08:27:05.177Z,100300.02
2023-02-01T08:29:31.977Z,100304.35
2023-02-01T08:31:58.518Z,100310.97
2023-02-01T08:55:35.523Z,100329.58
2023-02-01T08:58:01.957Z,100338.18
2023-02-01T09:00:28.414Z,100335.36
2023-02-01T09:02:56.111Z,100337.59
2023-02-01T09:05:22.604Z,100332.03
2023-02-01T09:07:49.078Z,100328.63
2023-02-01T09:10:17.260Z,100320.48
2023-02-01T09:12:45.508Z,100317.85
2023-02-01T09:15:12.260Z,100327.40
2023-02-01T09:17:38.759Z,100321.50
2023-02-01T09:20:05.583Z,100312.79
2023-02-01T09:22:32.108Z,100295.72
2023-02-01T09:24:58.571Z,100285.14
2023-02-01T09:27:25.086Z,100280.00
2023-02-01T09:29:51.604Z,100285.19
2023-02-01T09:32:18.237Z,100285.96
2023-02-01T09:34:44.771Z,100281.91
2023-02-01T09:37:11.215Z,100279.92
2023-02-01T09:39:37.658Z,100280.19
2023-02-01T09:42:12.649Z,100289.80
2023-02-01T09:45:13.169Z,100303.64
2023-02-01T09:47:49.582Z,100309.27
2023-02-01T09:50:20.893Z,100318.94
2023-02-01T09:53:13.827Z,100323.73
2023-02-01T09:55:51.803Z,100331.56
2023-02-01T09:58:42.558Z,100323.65
2023-02-01T10:01:18.996Z,100323.34
2023-02-01T10:03:45.704Z,100321.80
2023-02-01T10:06:22.548Z,100310.75
2023-02-01T10:09:01.218Z,100309.48
2023-02-01T10:12:00.114Z,100294.54
2023-02-01T10:14:57.635Z,100294.50
2023-02-01T10:17:38.223Z,100297.46
2023-02-01T10:20:19.869Z,100284.45
2023-02-01T10:23:13.668Z,100277.52
2023-02-01T10:25:54.959Z,100264.36
2023-02-01T10:28:22.641Z,100248.80
2023-02-01T10:30:49.974Z,100234.75
2023-02-01T10:33:22.982Z,100238.14
2023-02-01T10:35:56.480Z,100243.73
2023-02-01T10:38:29.838Z,100246.70
2023-02-01T10:41:03.681Z,100243.83
2023-02-01T10:43:31.019Z,100234.75
2023-02-01T10:45:57.923Z,100224.73
2023-02-01T10:48:24.428Z,100216.34
2023-02-01T10:50:57.489Z,100218.96
2023-02-01T10:53:59.305Z,100216.05
2023-02-01T10:56:28.765Z,100211.00
2023-02-01T10:59:24.465Z,100208.67
2023-02-01T11:01:59.787Z,100205.45
2023-02-01T11:04:27.041Z,100198.47
2023-02-01T11:06:55.719Z,100202.70
2023-02-01T11:09:25.143Z,100197.52
2023-02-01T11:11:51.560Z,100195.73
2023-02-01T11:14:20.545Z,100195.12
2023-02-01T11:17:01.106Z,100193.26
2023-02-01T11:19:28.736Z,100186.02
2023-02-01T11:21:58.544Z,100181.65
2023-02-01T11:24:35.142Z,100177.43
2023-02-01T11:27:06.700Z,100183.67
2023-02-01T11:29:43.311Z,100190.00
2023-02-01T11:32:12.892Z,100184.70
2023-02-01T11:34:47.517Z,100192.80
2023-02-01T11:37:22.240Z,100188.59
2023-02-01T11:39:55.726Z,100187.61
2023-02-01T11:42:22.536Z,100187.05
2023-02-01T11:44:49.172Z,100188.00
2023-02-01T11:47:39.701Z,100183.55
2023-02-01T11:50:15.882Z,100185.44
2023-02-01T11:52:53.665Z,100188.97
2023-02-01T11:55:32.529Z,100185.96
2023-02-01T11:58:11.157Z,100174.49
2023-02-01T12:00:46.866Z,100169.40
2023-02-01T12:03:25.915Z,100167.23
2023-02-01T12:06:01.443Z,100161.89
2023-02-01T12:08:40.079Z,100156.83
2023-02-01T12:11:34.455Z,100154.21
2023-02-01T12:14:29.915Z,100147.34
2023-02-01T12:17:24.183Z,100153.88
2023-02-01T12:20:25.698Z,100151.73
2023-02-01T12:23:16.700Z,100152.27
2023-02-01T12:26:06.980Z,100154.83
2023-02-01T12:28:39.697Z,100161.20
2023-02-01T12:31:15.319Z,100166.92
2023-02-01T12:33:54.830Z,100169.33
2023-02-01T12:36:48.828Z,100170.89
2023-02-01T12:39:39.188Z,100182.08
2023-02-01T12:42:12.531Z,100187.98
2023-02-01T12:44:53.116Z,100188.94
2023-02-01T12:47:27.111Z,100192.91
2023-02-01T12:50:01.494Z,100197.69
2023-02-01T12:53:05.620Z,100200.00
2023-02-01T12:55:42.779Z,100202.27
2023-02-01T12:58:24.017Z,100184.13
2023-02-01T13:01:00.795Z,100178.25
2023-02-01T13:03:27.293Z,100166.75
2023-02-01T13:06:04.373Z,100174.88
2023-02-01T13:08:37.770Z,100166.07
2023-02-01T13:11:38.393Z,100148.36
2023-02-01T13:14:33.717Z,100139.75
2023-02-01T13:17:19.441Z,100118.35
2023-02-01T13:20:00.989Z,100117.69
2023-02-01T13:22:36.062Z,100109.95
2023-02-01T13:25:11.739Z,100101.42
2023-02-01T13:27:39.075Z,100099.05
2023-02-01T13:30:19.099Z,100096.98
2023-02-01T13:33:53.466Z,100095.20
2023-02-01T13:36:01.919Z,100090.79
2023-02-01T13:38:43.416Z,100088.23
2023-02-01T13:41:27.803Z,100090.41
2023-02-01T13:44:16.540Z,100102.90
2023-02-01T13:46:46.543Z,100120.14
2023-02-01T13:49:32.113Z,100119.97
2023-02-01T13:52:00.021Z,100120.66
2023-02-01T13:54:37.106Z,100133.89
2023-02-01T13:57:07.458Z,100135.92
2023-02-01T13:59:38.063Z,100127.93
2023-02-01T14:02:47.241Z,100123.52
2023-02-01T14:05:34.703Z,100121.99
2023-02-01T14:08:07.325Z,100107.66
2023-02-01T14:10:46.064Z,100106.88
2023-02-01T14:13:39.797Z,100103.53
2023-02-01T14:16:06.337Z,100108.87
2023-02-01T14:18:38.666Z,100117.48
2023-02-01T14:21:26.238Z,100122.23
2023-02-01T14:23:55.625Z,100121.79
2023-02-01T14:26:23.587Z,100120.20
2023-02-01T14:28:55.120Z,100117.67
2023-02-01T14:31:46.809Z,100116.10
2023-02-01T14:34:17.899Z,100123.67
2023-02-01T14:36:58.216Z,100131.94
2023-02-01T14:39:32.454Z,100166.91
2023-02-01T14:42:18.643Z,100161.67
2023-02-01T14:44:59.150Z,100150.27
2023-02-01T14:47:31.727Z,100150.85
2023-02-01T14:50:07.207Z,100156.42
2023-02-01T14:52:41.590Z,100158.05
2023-02-01T14:55:14.700Z,100155.55
2023-02-01T14:57:44.348Z,100156.51
2023-02-01T15:00:27.073Z,100156.56
2023-02-01T15:02:55.664Z,100146.35
2023-02-01T15:05:31.636Z,100147.72
2023-02-01T15:08:04.638Z,100152.73
2023-02-01T15:10:33.350Z,100150.11
2023-02-01T15:12:59.824Z,100154.14
2023-02-01T15:15:26.842Z,100154.63
2023-02-01T15:17:59.363Z,100150.11
2023-02-01T15:20:31.635Z,100151.09
2023-02-01T15:23:17.382Z,100149.96
2023-02-01T15:25:47.375Z,100147.02
2023-02-01T15:28:16.073Z,100147.21
2023-02-01T15:30:54.442Z,100142.59
2023-02-01T15:33:21.369Z,100139.52
2023-02-01T15:35:50.817Z,100143.09
2023-02-01T15:38:26.522Z,100138.05
2023-02-01T15:41:14.445Z,100132.63
2023-02-01T15:43:43.138Z,100140.27
2023-02-01T15:46:13.319Z,100143.71
2023-02-01T15:48:44.789Z,100142.63
2023-02-01T15:51:20.794Z,100148.65
2023-02-01T15:53:58.435Z,100151.05
2023-02-01T15:56:28.130Z,100157.42
2023-02-01T15:58:58.650Z,100154.60
2023-02-01T16:01:25.621Z,100155.66
2023-02-01T16:04:16.511Z,100165.06
2023-02-01T16:07:04.115Z,100166.23
2023-02-01T16:09:53.891Z,100176.11
2023-02-01T16:12:43.214Z,100178.91
2023-02-01T16:15:09.990Z,100189.01
2023-02-01T16:17:36.483Z,100201.91
2023-02-01T16:20:03.003Z,100199.89
2023-02-01T16:22:29.469Z,100207.25
2023-02-01T16:24:55.926Z,100202.58
2023-02-01T16:27:22.448Z,100200.85
2023-02-01T16:29:49.593Z,100192.84
2023-02-01T16:32:21.769Z,100178.27
2023-02-01T16:34:49.298Z,100181.89
2023-02-01T16:37:21.792Z,100176.14
2023-02-01T16:39:48.605Z,100178.35
2023-02-01T16:42:16.692Z,100173.44
2023-02-01T16:44:43.400Z,100168.55
2023-02-01T16:47:18.580Z,100167.33
2023-02-01T16:49:45.585Z,100165.11
2023-02-01T16:52:19.262Z,100170.17
2023-02-01T16:54:45.759Z,100163.27
2023-02-01T16:57:16.544Z,100158.81
2023-02-01T16:59:43.777Z,100167.20
2023-02-01T17:02:20.666Z,100165.02
2023-02-01T17:04:47.218Z,100161.09
2023-02-01T17:07:19.421Z,100157.14
2023-02-01T17:09:47.370Z,100156.48
2023-02-01T17:12:24.460Z,100159.42
2023-02-01T17:14:51.966Z,100166.86
2023-02-01T17:17:25.778Z,100170.84
2023-02-01T17:19:59.547Z,100172.55
2023-02-01T17:22:26.094Z,100171.98
2023-02-01T17:24:52.564Z,100179.09
2023-02-01T17:27:19.590Z,100190.20
2023-02-01T17:29:46.153Z,100187.60
2023-02-01T17:32:18.131Z,100184.70
2023-02-01T17:34:46.356Z,100181.99
2023-02-01T17:37:33.501Z,100182.62
2023-02-01T17:40:01.221Z,100182.50
2023-02-01T17:42:30.255Z,100181.02
2023-02-01T17:45:00.699Z,100179.25
2023-02-01T17:47:27.191Z,100185.09
2023-02-01T17:49:56.835Z,100182.35
2023-02-01T17:52:25.197Z,100187.58
2023-02-01T17:54:51.673Z,100190.58
2023-02-01T17:57:18.148Z,100195.48
2023-02-01T17:59:44.660Z,100197.77
2023-02-01T18:02:24.381Z,100194.71
2023-02-01T18:04:51.540Z,100196.92
2023-02-01T18:07:20.747Z,100201.77
2023-02-01T18:09:47.266Z,100205.06
2023-02-01T18:12:23.276Z,100203.02
2023-02-01T18:14:49.885Z,100190.55
2023-02-01T18:17:16.364Z,100189.88
2023-02-01T18:19:42.874Z,100200.29
2023-02-01T18:22:24.168Z,100208.59
2023-02-01T18:24:51.856Z,100196.61
2023-02-01T18:27:18.327Z,100196.95
2023-02-01T18:29:44.817Z,100188.62
2023-02-01T18:32:11.307Z,100196.05
2023-02-01T18:34:37.803Z,100192.85
2023-02-01T18:37:04.311Z,100199.73
2023-02-01T18:39:31.087Z,100194.66
2023-02-01T18:41:58.879Z,100194.95
2023-02-01T18:44:25.330Z,100191.10
2023-02-01T18:46:51.860Z,100191.45
2023-02-01T18:49:18.628Z,100189.19
2023-02-01T18:51:46.067Z,100187.35
2023-02-01T18:54:12.909Z,100186.45
2023-02-01T18:56:39.429Z,100182.45
2023-02-01T18:59:05.887Z,100188.98
2023-02-01T19:01:32.395Z,100180.40
2023-02-01T19:04:05.851Z,100185.21
2023-02-01T19:06:42.973Z,100173.56
2023-02-01T19:09:09.557Z,100180.67
2023-02-01T19:11:36.032Z,100175.15
2023-02-01T19:14:02.503Z,100177.95
2023-02-01T19:16:29.071Z,100175.33
2023-02-01T19:18:55.579Z,100167.95
2023-02-01T19:21:22.131Z,100174.43
2023-02-01T19:23:48.657Z,100173.92
2023-02-01T19:26:17.102Z,100167.56
2023-02-01T19:28:44.032Z,100156.34
2023-02-01T19:31:11.415Z,100149.02
2023-02-01T19:33:38.007Z,100141.34
2023-02-01T19:36:06.588Z,100127.95
2023-02-01T19:38:33.876Z,100122.68
2023-02-01T19:41:00.795Z,100120.70
2023-02-01T19:43:27.477Z,100118.53
2023-02-01T19:45:54.719Z,100120.21
2023-02-01T19:48:21.255Z,100122.31
2023-02-01T19:50:47.744Z,100123.05
2023-02-01T19:53:14.375Z,100125.37
2023-02-01T19:55:47.071Z,100122.54
2023-02-01T19:58:14.304Z,100115.82
2023-02-01T20:00:40.044Z,100111.55
2023-02-01T20:03:06.830Z,100113.80
2023-02-01T20:05:33.642Z,100106.79
2023-02-01T20:08:00.150Z,100108.27
2023-02-01T20:10:26.736Z,100107.37
2023-02-01T20:12:53.243Z,100111.86
2023-02-01T20:15:19.835Z,100119.00
2023-02-01T20:17:46.361Z,100121.10
2023-02-01T20:20:12.847Z,100120.67
2023-02-01T20:22:39.326Z,100117.77
2023-02-01T20:25:06.295Z,100123.52
2023-02-01T20:27:33.791Z,100123.40
2023-02-01T20:30:00.243Z,100123.79
2023-02-01T20:32:26.894Z,100127.82
2023-02-01T20:34:53.607Z,100129.78
2023-02-01T20:37:21.131Z,100127.55
2023-02-01T20:39:47.607Z,100124.97
2023-02-01T20:42:14.103Z,100135.21
2023-02-01T20:44:40.562Z,100147.38
2023-02-01T20:47:07.001Z,100155.02
2023-02-01T20:49:33.607Z,100164.07
2023-02-01T20:52:00.145Z,100173.84
2023-02-01T20:54:26.673Z,100175.96
2023-02-01T20:56:56.201Z,100181.89
2023-02-01T20:59:22.669Z,100173.61
2023-02-01T21:01:49.142Z,100169.98
2023-02-01T21:04:15.649Z,100176.55
2023-02-01T21:06:44.768Z,100154.30
2023-02-01T21:09:11.226Z,100152.13
2023-02-01T21:11:37.705Z,100145.96
2023-02-01T21:14:04.158Z,100149.54
2023-02-01T21:16:31.198Z,100155.00
2023-02-01T21:18:57.662Z,100159.45
2023-02-01T21:21:24.189Z,100160.62
2023-02-01T21:23:50.682Z,100159.54
2023-02-01T21:26:22.367Z,100161.93
2023-02-01T21:28:49.857Z,100164.63
2023-02-01T21:31:17.267Z,100167.18
2023-02-01T21:33:44.446Z,100166.43
2023-02-01T21:36:11.108Z,100163.93
2023-02-01T21:38:37.602Z,100169.80
2023-02-01T21:41:04.294Z,100173.93
2023-02-01T21:43:30.775Z,100177.92
2023-02-01T21:45:57.262Z,100178.79
2023-02-01T21:48:23.761Z,100176.88
2023-02-01T21:50:50.225Z,100182.05
2023-02-01T21:53:16.655Z,100183.61
2023-02-01T21:55:43.131Z,100181.54
2023-02-01T21:58:09.684Z,100177.41
2023-02-01T22:00:36.165Z,100177.95
2023-02-01T22:03:02.623Z,100184.24
2023-02-01T22:05:29.112Z,100189.66
2023-02-01T22:07:55.838Z,100183.94
2023-02-01T22:10:23.782Z,100182.73
2023-02-01T22:12:50.761Z,100173.52
2023-02-01T22:15:17.326Z,100162.02
2023-02-01T22:17:43.845Z,100154.51
2023-02-01T22:20:12.432Z,100145.09
2023-02-01T22:22:38.902Z,100133.91
2023-02-01T22:25:07.162Z,100127.79
2023-02-01T22:28:30.621Z,100132.04
2023-02-01T22:30:21.306Z,100129.71
2023-02-01T22:32:47.940Z,100114.08
2023-02-01T22:35:14.567Z,100115.11
2023-02-01T22:37:41.037Z,100104.14
2023-02-01T22:40:08.179Z,100102.34
2023-02-01T22:42:34.691Z,100107.27
2023-02-01T22:45:01.173Z,100108.90
2023-02-01T22:47:28.112Z,100108.35
2023-02-01T22:49:54.564Z,100113.39
2023-02-01T22:52:21.025Z,100105.93
2023-02-01T22:54:47.511Z,100104.39
2023-02-01T22:57:13.988Z,100106.09
2023-02-01T22:59:40.450Z,100108.81
2023-02-01T23:02:06.894Z,100112.42
2023-02-01T23:04:33.419Z,100109.59
2023-02-01T23:07:00.141Z,100103.15
2023-02-01T23:09:26.726Z,100103.83
2023-02-01T23:11:54.014Z,100100.98
2023-02-01T23:14:20.999Z,100097.30
2023-02-01T23:16:48.991Z,100089.10
2023-02-01T23:19:16.046Z,100095.17
2023-02-01T23:21:42.527Z,100095.48
2023-02-01T23:24:09.104Z,100111.02
2023-02-01T23:26:35.792Z,100113.78
2023-02-01T23:29:03.712Z,100112.56
2023-02-01T23:31:32.961Z,100100.64
2023-02-01T23:34:01.307Z,100100.16
2023-02-01T23:36:28.995Z,100087.68
2023-02-01T23:38:56.025Z,100077.46
2023-02-01T23:41:23.932Z,100071.16
2023-02-01T23:43:51.100Z,100079.61
2023-02-01T23:46:18.446Z,100082.19
2023-02-01T23:48:46.916Z,100084.96
2023-02-01T23:51:14.394Z,100081.23
2023-02-01T23:53:41.062Z,100079.71
2023-02-01T23:56:08.340Z,100062.89
2023-02-01T23:58:34.798Z,100064.48
